Time;durP1;ratioP1;P1;durP2;ratioP2;P2;SDS_P1;SDS_P2;PMS_P1;PMS_P2;Temp;Humidity;BMP_temperature;BMP_pressure;BME280_temperature;BME280_humidity;BME280_pressure;Samples;Min_cycle;Max_cycle;Signal;HPM_P1;HPM_P2
2023/06/05 00:00:06;;;;;;;38.25;34.15;;;;;;;12.22;100.00;101618.44;5012992;28;21140;-77
2023/06/05 00:02:40;;;;;;;39.75;35.75;;;;;;;11.53;100.00;101612.94;5006856;28;20061;-77
2023/06/05 00:05:09;;;;;;;40.20;36.10;;;;;;;11.98;100.00;101617.06;5008195;28;20433;-77
2023/06/05 00:07:37;;;;;;;39.20;35.30;;;;;;;12.28;100.00;101619.50;5010378;28;20053;-77
2023/06/05 00:10:05;;;;;;;39.13;35.05;;;;;;;12.26;100.00;101619.72;5011559;28;20050;-77
2023/06/05 00:12:32;;;;;;;38.60;34.88;;;;;;;12.27;100.00;101618.69;5012290;28;20052;-83
2023/06/05 00:15:02;;;;;;;37.47;33.65;;;;;;;12.12;100.00;101610.00;5010764;28;20076;-77
2023/06/05 00:17:30;;;;;;;36.65;32.85;;;;;;;12.32;100.00;101612.81;5010100;28;20077;-77
2023/06/05 00:19:58;;;;;;;38.65;32.25;;;;;;;12.12;100.00;101615.31;4992808;28;20108;-77
2023/06/05 00:22:25;;;;;;;40.40;36.30;;;;;;;11.80;100.00;101611.34;5009022;28;20050;-77
2023/06/05 00:24:52;;;;;;;38.55;34.58;;;;;;;12.06;100.00;101608.91;5012438;28;20446;-77
2023/06/05 00:27:32;;;;;;;44.05;39.67;;;;;;;12.06;100.00;101606.25;4993097;28;20081;-83
2023/06/05 00:30:01;;;;;;;47.60;43.00;;;;;;;12.28;100.00;101603.53;5004333;28;20477;-83
2023/06/05 00:32:27;;;;;;;41.85;37.80;;;;;;;12.17;100.00;101601.44;5003890;28;20058;-82
2023/06/05 00:34:54;;;;;;;44.78;40.72;;;;;;;11.76;100.00;101600.25;5001225;28;20046;-83
2023/06/05 00:37:21;;;;;;;42.22;37.72;;;;;;;11.59;100.00;101610.38;4997360;28;20054;-83
2023/06/05 00:39:48;;;;;;;40.47;36.25;;;;;;;12.01;100.00;101611.38;4996214;28;20054;-83
2023/06/05 00:42:17;;;;;;;44.10;40.10;;;;;;;12.08;100.00;101609.56;4993936;28;20038;-83
2023/06/05 00:44:44;;;;;;;38.38;34.47;;;;;;;12.05;100.00;101603.81;4993134;28;20505;-83
2023/06/05 00:47:18;;;;;;;39.78;35.78;;;;;;;12.11;100.00;101613.69;5005660;28;20073;-83
2023/06/05 00:49:59;;;;;;;40.00;35.97;;;;;;;12.24;100.00;101615.59;5010240;28;20068;-83
2023/06/05 00:52:31;;;;;;;48.13;43.90;;;;;;;12.19;100.00;101620.69;5009158;28;20096;-82
2023/06/05 00:55:03;;;;;;;;;;;;;;;12.37;100.00;101615.69;5012172;28;20065;-82
2023/06/05 00:57:34;;;;;;;41.53;37.33;;;;;;;11.84;100.00;101613.44;5011894;28;21437;-83
2023/06/05 01:00:06;;;;;;;41.15;37.13;;;;;;;11.78;100.00;101608.88;5010383;28;20046;-82
2023/06/05 01:02:37;;;;;;;;;;;;;;;12.00;100.00;101611.53;5011834;28;20411;-83
2023/06/05 01:05:04;;;;;;;40.83;36.83;;;;;;;12.20;100.00;101612.50;5010181;28;20011;-83
2023/06/05 01:07:34;;;;;;;40.67;36.38;;;;;;;12.15;100.00;101612.25;5010680;28;20050;-82
2023/06/05 01:10:01;;;;;;;39.17;35.28;;;;;;;11.68;100.00;101619.03;5010736;28;20437;-83
2023/06/05 01:12:34;;;;;;;38.75;34.75;;;;;;;11.95;100.00;101620.09;5011718;28;20432;-82
2023/06/05 01:15:05;;;;;;;42.70;38.45;;;;;;;11.94;100.00;101615.78;5006991;28;20057;-82
2023/06/05 01:17:47;;;;;;;43.15;38.95;;;;;;;11.90;100.00;101619.88;5010510;28;20050;-82
2023/06/05 01:20:14;;;;;;;42.57;38.17;;;;;;;11.25;100.00;101619.00;5009237;28;20089;-81
2023/06/05 01:22:52;;;;;;;38.22;34.15;;;;;;;11.61;100.00;101618.97;5012032;28;20050;-83
2023/06/05 01:25:21;;;;;;;44.15;36.28;;;;;;;11.67;100.00;101618.19;5006296;28;20042;-82
2023/06/05 01:27:54;;;;;;;40.85;36.95;;;;;;;11.73;100.00;101618.47;4996588;28;20050;-83
2023/06/05 01:30:28;;;;;;;39.55;35.42;;;;;;;11.72;100.00;101616.81;5006716;28;20406;-82
2023/06/05 01:33:02;;;;;;;39.70;35.63;;;;;;;11.85;100.00;101614.28;5011894;28;20441;-82
2023/06/05 01:35:32;;;;;;;43.15;38.95;;;;;;;11.93;100.00;101614.16;5005016;28;20049;-82
2023/06/05 01:38:05;;;;;;;38.10;34.03;;;;;;;11.96;100.00;101618.28;4997319;28;20507;-82
2023/06/05 01:40:37;;;;;;;37.25;33.35;;;;;;;11.56;100.00;101617.88;5001871;28;20144;-82
2023/06/05 01:43:06;;;;;;;38.25;34.35;;;;;;;11.65;100.00;101624.75;4999182;28;20057;-82
2023/06/05 01:45:33;;;;;;;37.25;33.55;;;;;;;11.85;100.00;101628.41;5000243;28;20058;-82
2023/06/05 01:48:03;;;;;;;39.15;35.25;;;;;;;11.91;100.00;101621.50;4996654;28;20049;-76
2023/06/05 01:50:35;;;;;;;35.95;32.45;;;;;;;11.80;100.00;101630.81;5003183;28;20078;-77
2023/06/05 01:53:05;;;;;;;37.20;33.13;;;;;;;12.00;100.00;101627.53;5008269;28;20764;-77
2023/06/05 01:55:32;;;;;;;39.75;35.75;;;;;;;11.79;100.00;101631.00;5005633;28;20469;-77
2023/06/05 01:57:59;;;;;;;42.72;38.53;;;;;;;11.39;100.00;101623.47;5004279;28;20050;-82
2023/06/05 02:00:27;;;;;;;48.97;44.28;;;;;;;11.82;100.00;101630.63;4994497;28;20050;-82
2023/06/05 02:02:53;;;;;;;44.08;39.85;;;;;;;11.73;100.00;101637.91;5006951;28;20520;-82
2023/06/05 02:05:24;;;;;;;50.08;45.28;;;;;;;11.72;100.00;101644.25;5009140;28;20053;-83
2023/06/05 02:07:53;;;;;;;47.20;42.70;;;;;;;11.76;100.00;101642.03;4996829;28;20046;-82
2023/06/05 02:10:23;;;;;;;48.05;43.63;;;;;;;11.86;100.00;101639.88;4991669;28;20042;-81
2023/06/05 02:13:01;;;;;;;46.25;41.75;;;;;;;11.56;100.00;101637.34;4992049;28;20054;-82
2023/06/05 02:15:31;;;;;;;46.08;41.67;;;;;;;11.15;100.00;101645.91;4991703;28;20434;-82
2023/06/05 02:18:04;;;;;;;48.90;44.55;;;;;;;11.40;100.00;101641.06;4995071;28;20125;-82
2023/06/05 02:20:44;;;;;;;42.17;37.78;;;;;;;11.46;100.00;101644.81;4995066;28;20546;-82
2023/06/05 02:23:12;;;;;;;41.15;37.03;;;;;;;11.24;100.00;101646.63;5008583;28;20644;-82
2023/06/05 02:25:40;;;;;;;41.53;37.45;;;;;;;11.56;100.00;101647.16;5006779;28;20518;-82
2023/06/05 02:28:07;;;;;;;34.83;31.38;;;;;;;11.04;100.00;101657.00;5008636;28;20042;-76
2023/06/05 02:30:34;;;;;;;36.53;32.63;;;;;;;10.89;100.00;101653.56;5000517;28;20433;-77
2023/06/05 02:33:01;;;;;;;38.35;34.60;;;;;;;11.45;100.00;101644.00;5010999;28;20450;-77
2023/06/05 02:35:29;;;;;;;32.85;29.45;;;;;;;11.62;100.00;101657.88;5005273;28;20052;-77
2023/06/05 02:37:56;;;;;;;33.00;29.73;;;;;;;11.41;100.00;101658.69;5005056;28;20079;-77
2023/06/05 02:40:24;;;;;;;31.65;28.75;;;;;;;11.35;100.00;101662.09;4998575;28;20497;-77
2023/06/05 02:42:52;;;;;;;33.38;30.35;;;;;;;11.29;100.00;101652.22;4991492;28;20086;-77
2023/06/05 02:45:19;;;;;;;33.60;29.73;;;;;;;11.32;100.00;101649.19;4999999;28;20608;-77
2023/06/05 02:47:46;;;;;;;33.20;29.85;;;;;;;11.13;100.00;101650.56;5003148;28;20146;-77
2023/06/05 02:50:13;;;;;;;34.17;30.55;;;;;;;10.78;100.00;101660.19;4990562;28;20066;-77
2023/06/05 02:52:40;;;;;;;35.08;31.67;;;;;;;10.71;100.00;101656.59;5004653;28;20490;-77
2023/06/05 02:55:08;;;;;;;36.53;33.03;;;;;;;11.33;100.00;101658.78;5005398;28;20058;-76
2023/06/05 02:57:40;;;;;;;36.53;33.00;;;;;;;11.64;100.00;101657.69;5013660;28;20050;-82
2023/06/05 03:00:14;;;;;;;34.85;31.42;;;;;;;11.60;100.00;101664.41;5014782;28;20046;-82
2023/06/05 03:02:49;;;;;;;34.28;31.15;;;;;;;11.65;100.00;101662.81;5013447;28;20594;-82
2023/06/05 03:05:25;;;;;;;34.47;31.35;;;;;;;11.34;100.00;101659.63;5008282;28;20429;-82
2023/06/05 03:07:54;;;;;;;33.97;30.80;;;;;;;11.13;100.00;101663.06;5011426;28;20062;-82
2023/06/05 03:10:21;;;;;;;36.28;32.88;;;;;;;11.18;100.00;101658.81;5010137;28;20073;-82
2023/06/05 03:12:53;;;;;;;34.90;31.90;;;;;;;11.57;100.00;101654.13;5012525;28;20119;-82
2023/06/05 03:15:21;;;;;;;32.55;29.75;;;;;;;11.64;100.00;101660.34;5011693;28;20053;-82
2023/06/05 03:17:48;;;;;;;34.05;31.15;;;;;;;11.36;100.00;101655.75;5011545;28;20053;-82
2023/06/05 03:20:19;;;;;;;34.70;31.42;;;;;;;11.78;100.00;101650.66;5012984;28;20050;-81
2023/06/05 03:22:46;;;;;;;36.10;32.80;;;;;;;11.76;100.00;101658.81;5007606;28;20061;-77
2023/06/05 03:25:13;;;;;;;34.80;31.63;;;;;;;11.85;100.00;101656.88;5010981;28;20501;-80
2023/06/05 03:27:41;;;;;;;36.00;32.70;;;;;;;12.00;100.00;101656.81;5011459;28;20056;-76
2023/06/05 03:30:09;;;;;;;36.22;32.80;;;;;;;12.04;100.00;101666.03;5012390;28;20056;-76
2023/06/05 03:32:37;;;;;;;37.60;34.10;;;;;;;12.31;100.00;101667.06;5013075;28;20080;-77
2023/06/05 03:35:10;;;;;;;36.03;32.60;;;;;;;12.48;100.00;101660.44;5013154;28;20120;-77
2023/06/05 03:37:45;;;;;;;37.47;34.15;;;;;;;12.72;100.00;101661.81;5007968;28;20115;-76
2023/06/05 03:40:13;;;;;;;38.42;34.92;;;;;;;12.98;100.00;101657.59;5013333;28;20057;-77
2023/06/05 03:42:40;;;;;;;40.10;36.17;;;;;;;13.01;100.00;101654.53;5011085;28;20046;-77
2023/06/05 03:45:08;;;;;;;42.50;38.65;;;;;;;13.30;100.00;101656.13;5012485;28;20046;-77
2023/06/05 03:47:40;;;;;;;42.95;38.70;;;;;;;13.57;100.00;101658.84;5012693;28;20395;-77
2023/06/05 03:50:08;;;;;;;42.67;38.67;;;;;;;13.27;100.00;101652.00;4997791;28;20057;-82
2023/06/05 03:52:39;;;;;;;42.53;38.53;;;;;;;13.55;100.00;101652.88;4993952;28;20537;-82
2023/06/05 03:55:08;;;;;;;42.60;38.80;;;;;;;13.68;100.00;101647.59;4998879;28;20058;-82
2023/06/05 03:57:37;;;;;;;44.45;40.30;;;;;;;13.84;100.00;101635.69;5002906;28;20054;-82
2023/06/05 04:00:15;;;;;;;44.95;40.60;;;;;;;14.04;100.00;101641.00;5007739;28;20080;-82
2023/06/05 04:02:43;;;;;;;47.35;42.58;;;;;;;14.00;100.00;101639.78;5010884;28;20054;-82
2023/06/05 04:05:12;;;;;;;46.58;42.47;;;;;;;14.08;100.00;101650.28;5007552;28;20062;-82
2023/06/05 04:07:39;;;;;;;50.00;45.63;;;;;;;14.49;100.00;101654.53;5007479;28;20532;-77
2023/06/05 04:10:07;;;;;;;49.70;45.38;;;;;;;14.88;100.00;101646.41;5001054;28;20433;-83
2023/06/05 04:12:34;;;;;;;50.97;46.58;;;;;;;15.06;100.00;101650.25;5008802;28;20141;-83
2023/06/05 04:15:04;;;;;;;52.47;47.95;;;;;;;15.04;100.00;101647.81;4995438;28;20046;-82
2023/06/05 04:17:31;;;;;;;53.03;48.63;;;;;;;14.85;100.00;101641.47;4996817;28;20057;-77
2023/06/05 04:20:00;;;;;;;49.97;45.42;;;;;;;15.05;100.00;101648.63;5009795;28;20053;-83
2023/06/05 04:22:27;;;;;;;49.65;45.40;;;;;;;15.12;100.00;101652.06;5008557;28;20050;-82
2023/06/05 04:24:54;;;;;;;54.47;49.92;;;;;;;15.29;100.00;101644.38;5010615;28;20056;-82
2023/06/05 04:27:21;;;;;;;55.08;50.28;;;;;;;15.57;100.00;101652.03;5010721;28;20049;-82
2023/06/05 04:29:49;;;;;;;54.03;49.53;;;;;;;15.72;100.00;101649.06;5011998;28;20457;-82
2023/06/05 04:32:16;;;;;;;57.35;52.75;;;;;;;15.75;100.00;101643.28;5010826;28;20050;-82
2023/06/05 04:34:50;;;;;;;54.92;50.42;;;;;;;15.69;100.00;101644.16;5001571;28;20512;-82
2023/06/05 04:37:18;;;;;;;58.30;53.28;;;;;;;15.89;100.00;101644.00;4999836;28;20437;-83
2023/06/05 04:39:45;;;;;;;58.70;53.80;;;;;;;16.13;100.00;101653.91;5005011;28;20442;-83
2023/06/05 04:42:12;;;;;;;59.50;54.40;;;;;;;16.16;100.00;101644.59;5003487;28;20065;-82
2023/06/05 04:44:54;;;;;;;62.45;57.33;;;;;;;16.28;100.00;101645.50;5001290;28;20431;-82
2023/06/05 04:47:26;;;;;;;60.17;55.25;;;;;;;16.25;100.00;101651.31;5008821;28;20042;-83
2023/06/05 04:49:54;;;;;;;61.25;56.15;;;;;;;16.24;100.00;101641.63;4994676;28;20721;-84
2023/06/05 04:52:23;;;;;;;63.38;57.67;;;;;;;16.61;100.00;101650.53;5010622;28;20050;-82
2023/06/05 04:54:50;;;;;;;61.58;56.55;;;;;;;16.85;100.00;101648.00;4995401;28;20050;-82
2023/06/05 04:57:20;;;;;;;58.15;53.35;;;;;;;16.94;100.00;101646.66;5008877;28;20061;-77
2023/06/05 04:59:47;;;;;;;55.80;51.05;;;;;;;16.75;100.00;101645.81;5003744;28;20061;-77
2023/06/05 05:02:14;;;;;;;58.95;53.60;;;;;;;17.13;100.00;101642.09;4997255;28;20138;-77
2023/06/05 05:04:41;;;;;;;57.45;52.75;;;;;;;16.83;100.00;101640.19;5011104;28;20425;-77
2023/06/05 05:07:13;;;;;;;59.80;54.63;;;;;;;16.96;100.00;101641.88;5010244;28;20053;-77
2023/06/05 05:09:41;;;;;;;59.17;53.33;;;;;;;16.94;100.00;101642.13;5009275;28;20050;-77
2023/06/05 05:12:09;;;;;;;63.03;56.33;;;;;;;17.22;100.00;101635.34;4992562;28;20140;-77
2023/06/05 05:14:39;;;;;;;66.18;53.80;;;;;;;17.24;100.00;101638.63;5011542;28;20049;-77
2023/06/05 05:17:06;;;;;;;67.88;60.72;;;;;;;17.12;100.00;101638.56;5010645;28;20046;-77
2023/06/05 05:19:33;;;;;;;66.93;59.95;;;;;;;17.20;100.00;101639.31;5010230;28;20438;-77
2023/06/05 05:22:00;;;;;;;65.82;59.13;;;;;;;17.25;100.00;101642.16;5009998;28;20510;-77
2023/06/05 05:24:27;;;;;;;62.75;56.20;;;;;;;17.30;100.00;101643.06;4996930;28;20058;-77
2023/06/05 05:26:56;;;;;;;67.20;56.72;;;;;;;17.34;100.00;101646.16;4999593;28;20060;-77
2023/06/05 05:29:22;;;;;;;73.03;59.72;;;;;;;17.35;100.00;101640.53;5006112;28;20046;-77
2023/06/05 05:31:50;;;;;;;73.57;58.72;;;;;;;17.29;100.00;101641.44;4992232;28;20549;-82
2023/06/05 05:34:21;;;;;;;66.20;59.90;;;;;;;17.49;100.00;101641.16;5004393;28;20054;-83
2023/06/05 05:36:48;;;;;;;61.15;55.70;;;;;;;17.48;100.00;101647.56;5009775;28;20072;-82
2023/06/05 05:39:15;;;;;;;62.05;56.30;;;;;;;17.39;100.00;101648.94;5002510;28;20050;-77
2023/06/05 05:41:42;;;;;;;59.83;54.53;;;;;;;17.66;100.00;101649.38;5010874;28;20084;-77
2023/06/05 05:44:16;;;;;;;56.50;51.70;;;;;;;17.54;100.00;101652.03;5010971;28;20438;-77
2023/06/05 05:46:47;;;;;;;59.17;54.38;;;;;;;17.73;100.00;101660.00;5008496;28;20061;-77
2023/06/05 05:49:16;;;;;;;64.00;57.88;;;;;;;17.83;100.00;101649.56;5008076;28;20548;-77
2023/06/05 05:51:43;;;;;;;66.47;59.80;;;;;;;17.98;100.00;101647.25;4997348;28;20049;-78
2023/06/05 05:54:09;;;;;;;71.90;60.97;;;;;;;18.26;100.00;101646.53;5011115;28;20046;-77
2023/06/05 05:56:36;;;;;;;64.90;58.65;;;;;;;18.43;100.00;101648.53;5010458;28;20053;-77
2023/06/05 05:59:09;;;;;;;56.85;51.78;;;;;;;18.20;100.00;101654.72;5010277;28;20057;-77
2023/06/05 06:01:38;;;;;;;53.75;48.72;;;;;;;18.26;100.00;101653.78;4999657;28;20050;-77
2023/06/05 06:04:05;;;;;;;57.22;51.40;;;;;;;18.96;100.00;101650.19;5002757;28;20129;-77
2023/06/05 06:06:41;;;;;;;56.17;47.70;;;;;;;19.21;100.00;101641.78;5006558;28;20425;-77
2023/06/05 06:09:09;;;;;;;47.40;41.03;;;;;;;19.10;100.00;101642.66;5001980;28;20426;-77
2023/06/05 06:11:38;;;;;;;43.10;38.45;;;;;;;19.42;100.00;101642.97;5009056;28;20046;-78
2023/06/05 06:14:06;;;;;;;38.88;34.60;;;;;;;19.60;100.00;101647.31;5010241;28;20210;-77
2023/06/05 06:16:33;;;;;;;36.10;32.25;;;;;;;19.69;100.00;101640.50;5008405;28;20509;-77
2023/06/05 06:19:01;;;;;;;36.88;32.78;;;;;;;19.43;100.00;101650.81;5003444;28;20419;-77
2023/06/05 06:21:33;;;;;;;33.42;30.10;;;;;;;20.03;100.00;101645.88;5006760;28;20128;-77
2023/06/05 06:24:01;;;;;;;29.77;26.50;;;;;;;20.06;100.00;101642.69;5004123;28;20050;-77
2023/06/05 06:26:28;;;;;;;30.45;27.55;;;;;;;19.45;100.00;101643.31;4997167;28;20050;-77
2023/06/05 06:28:57;;;;;;;33.03;29.60;;;;;;;19.84;100.00;101643.44;5007780;28;20053;-77
2023/06/05 06:31:24;;;;;;;33.47;30.13;;;;;;;19.62;100.00;101646.00;5007683;28;20599;-83
2023/06/05 06:33:52;;;;;;;33.10;29.58;;;;;;;19.60;100.00;101642.75;5013364;28;20446;-83
2023/06/05 06:36:22;;;;;;;36.33;32.70;;;;;;;20.10;100.00;101638.44;5015122;28;20510;-77
2023/06/05 06:38:49;;;;;;;36.95;33.60;;;;;;;20.07;100.00;101634.38;5014088;28;20061;-77
2023/06/05 06:41:16;;;;;;;34.78;31.98;;;;;;;20.24;100.00;101628.94;5012710;28;20434;-84
2023/06/05 06:43:44;;;;;;;31.80;29.10;;;;;;;20.04;100.00;101626.78;5001108;28;20053;-83
2023/06/05 06:46:11;;;;;;;32.22;29.50;;;;;;;20.48;100.00;101634.91;5004833;28;20067;-74
2023/06/05 06:48:37;;;;;;;29.25;26.25;;;;;;;20.87;100.00;101629.50;5006904;28;20065;-77
2023/06/05 06:51:04;;;;;;;26.92;24.40;;;;;;;20.30;100.00;101635.22;5003432;28;20053;-78
2023/06/05 06:53:32;;;;;;;30.38;27.77;;;;;;;20.42;100.00;101635.09;5013018;28;20509;-78
2023/06/05 06:55:59;;;;;;;29.23;26.30;;;;;;;20.48;100.00;101628.72;5011523;28;20423;-77
2023/06/05 06:58:27;;;;;;;27.08;24.67;;;;;;;20.55;100.00;101641.00;5013266;28;20042;-78
2023/06/05 07:00:54;;;;;;;26.95;24.50;;;;;;;20.46;100.00;101641.66;5009590;28;20051;-77
2023/06/05 07:03:23;;;;;;;27.95;25.42;;;;;;;20.74;100.00;101640.69;5014197;28;20136;-78
2023/06/05 07:05:53;;;;;;;30.55;27.92;;;;;;;21.43;100.00;101634.72;5006989;28;20697;-78
2023/06/05 07:08:20;;;;;;;31.33;28.48;;;;;;;21.70;100.00;101640.06;5014343;28;20045;-85
2023/06/05 07:10:48;;;;;;;26.50;24.33;;;;;;;21.21;100.00;101637.41;5006325;28;20053;-85
2023/06/05 07:13:15;;;;;;;26.08;23.48;;;;;;;21.41;100.00;101639.53;5007802;28;20108;-78
2023/06/05 07:15:42;;;;;;;23.42;21.52;;;;;;;21.73;100.00;101632.25;5005732;28;20629;-78
2023/06/05 07:18:10;;;;;;;24.38;22.40;;;;;;;22.21;100.00;101632.34;5008881;28;20425;-78
2023/06/05 07:20:37;;;;;;;23.23;20.98;;;;;;;22.46;100.00;101625.44;5006428;28;20062;-78
2023/06/05 07:23:04;;;;;;;23.92;21.70;;;;;;;22.25;100.00;101633.44;5009693;28;20458;-78
2023/06/05 07:25:30;;;;;;;24.35;22.25;;;;;;;22.37;100.00;101634.06;5009505;28;20050;-78
2023/06/05 07:28:00;;;;;;;24.77;22.73;;;;;;;22.28;100.00;101634.81;5010128;28;20430;-78
2023/06/05 07:30:27;;;;;;;24.23;22.52;;;;;;;22.33;100.00;101626.72;5005993;28;20509;-78
2023/06/05 07:32:53;;;;;;;23.02;21.05;;;;;;;22.38;100.00;101622.16;5013929;28;20045;-78
2023/06/05 07:35:20;;;;;;;24.38;22.42;;;;;;;22.42;100.00;101630.53;4998018;28;20108;-77
2023/06/05 07:37:48;;;;;;;24.58;22.48;;;;;;;22.44;100.00;101627.59;5000956;28;20046;-78
2023/06/05 07:40:14;;;;;;;23.83;21.83;;;;;;;22.70;100.00;101626.63;4997794;28;20433;-78
2023/06/05 07:42:41;;;;;;;22.50;20.80;;;;;;;23.02;100.00;101626.47;5009455;28;20050;-78
2023/06/05 07:45:10;;;;;;;23.65;21.85;;;;;;;22.72;100.00;101629.06;5012451;28;20050;-78
2023/06/05 07:47:44;;;;;;;21.75;20.05;;;;;;;22.77;100.00;101619.06;5010996;28;20054;-78
2023/06/05 07:50:11;;;;;;;21.70;20.00;;;;;;;22.54;100.00;101628.47;5012482;28;20512;-78
2023/06/05 07:52:39;;;;;;;22.42;20.35;;;;;;;23.30;100.00;101625.19;4993683;28;20053;-78
2023/06/05 07:55:07;;;;;;;22.48;20.70;;;;;;;23.47;100.00;101627.63;5010832;28;20058;-78
2023/06/05 07:57:34;;;;;;;25.10;23.00;;;;;;;23.58;100.00;101633.06;4997414;28;20088;-78
2023/06/05 08:00:05;;;;;;;23.27;21.48;;;;;;;23.64;100.00;101638.22;5002905;28;20498;-78
2023/06/05 08:02:33;;;;;;;21.83;20.05;;;;;;;23.95;100.00;101632.78;4998189;28;20050;-78
2023/06/05 08:05:01;;;;;;;20.73;19.08;;;;;;;24.03;100.00;101636.88;4993068;28;20058;-78
2023/06/05 08:07:28;;;;;;;21.75;20.15;;;;;;;23.87;100.00;101622.47;4992818;28;20053;-78
2023/06/05 08:09:56;;;;;;;27.30;25.42;;;;;;;23.67;100.00;101626.00;4993306;28;20419;-78
2023/06/05 08:12:29;;;;;;;26.75;24.58;;;;;;;24.00;100.00;101616.50;4993863;28;20495;-78
2023/06/05 08:15:06;;;;;;;34.78;32.30;;;;;;;23.50;100.00;101608.09;4993134;28;20042;-78
2023/06/05 08:17:37;;;;;;;32.15;30.10;;;;;;;23.80;100.00;101603.78;4997945;28;20058;-78
2023/06/05 08:20:07;;;;;;;33.58;31.27;;;;;;;23.68;100.00;101598.59;4993982;28;20050;-78
2023/06/05 08:22:34;;;;;;;33.92;31.92;;;;;;;24.02;100.00;101599.94;4996817;28;20057;-78
2023/06/05 08:25:00;;;;;;;31.05;28.80;;;;;;;24.18;100.00;101586.06;5012830;28;20127;-78
2023/06/05 08:27:32;;;;;;;30.45;28.45;;;;;;;24.16;100.00;101590.94;5003903;28;20053;-78
2023/06/05 08:29:59;;;;;;;29.75;27.48;;;;;;;23.79;100.00;101587.78;5004961;28;20050;-78
2023/06/05 08:32:27;;;;;;;27.00;25.08;;;;;;;24.22;100.00;101589.84;4993350;28;20046;-84
2023/06/05 08:34:55;;;;;;;26.63;24.83;;;;;;;24.26;100.00;101579.25;4994598;28;20054;-85
2023/06/05 08:37:22;;;;;;;29.30;27.20;;;;;;;24.31;100.00;101581.16;4997917;28;20437;-85
2023/06/05 08:39:50;;;;;;;28.25;26.15;;;;;;;24.59;100.00;101579.69;4995829;28;20042;-86
2023/06/05 08:42:28;;;;;;;28.42;26.20;;;;;;;24.65;100.00;101575.84;4993121;28;20054;-78
2023/06/05 08:44:55;;;;;;;27.60;25.73;;;;;;;25.08;100.00;101579.69;4992977;28;20134;-77
2023/06/05 08:47:23;;;;;;;26.40;24.13;;;;;;;25.06;100.00;101595.44;4993107;28;20058;-85
2023/06/05 08:50:08;;;;;;;26.48;24.67;;;;;;;24.54;100.00;101594.13;4994396;28;20046;-78
2023/06/05 08:52:40;;;;;;;26.10;24.20;;;;;;;24.70;100.00;101585.88;4992752;28;20046;-78
2023/06/05 08:55:08;;;;;;;28.40;26.10;;;;;;;24.81;91.06;101591.00;4992617;28;20090;-85
2023/06/05 08:57:37;;;;;;;28.63;26.42;;;;;;;24.33;83.26;101592.53;5005681;28;20054;-77
2023/06/05 09:00:10;;;;;;;28.23;25.77;;;;;;;24.52;91.56;101588.13;4997490;28;20451;-78
2023/06/05 09:02:38;;;;;;;30.08;27.77;;;;;;;24.71;74.63;101585.59;5009543;28;20056;-78
2023/06/05 09:05:08;;;;;;;32.03;29.63;;;;;;;24.66;72.55;101586.44;5009646;28;20045;-78
2023/06/05 09:07:54;;;;;;;30.50;28.20;;;;;;;24.60;92.36;101590.28;4993823;28;20129;-78
2023/06/05 09:10:32;;;;;;;29.70;27.52;;;;;;;24.40;100.00;101584.91;4992382;28;20713;-78
2023/06/05 09:13:05;;;;;;;30.95;28.70;;;;;;;24.65;100.00;101590.25;4992453;28;20125;-78
2023/06/05 09:15:34;;;;;;;32.15;29.95;;;;;;;24.86;82.63;101590.94;5011682;28;20564;-85
2023/06/05 09:18:10;;;;;;;30.85;28.70;;;;;;;24.99;60.39;101594.13;4994114;28;20066;-85
2023/06/05 09:20:40;;;;;;;37.22;34.63;;;;;;;25.03;58.57;101596.00;5008872;28;20129;-88
2023/06/05 09:23:24;;;;;;;33.28;30.67;;;;;;;25.17;61.23;101598.13;4996629;28;20069;-85
2023/06/05 09:25:52;;;;;;;30.00;27.85;;;;;;;25.16;55.31;101604.66;5001720;28;20060;-87
2023/06/05 09:28:25;;;;;;;30.58;28.38;;;;;;;25.65;49.36;101601.00;4992823;28;20046;-78
2023/06/05 09:30:59;;;;;;;30.20;27.95;;;;;;;25.11;59.28;101598.13;5001210;28;20504;-84
2023/06/05 09:33:28;;;;;;;31.13;28.63;;;;;;;25.31;65.68;101605.34;5007930;28;20046;-87
2023/06/05 09:36:13;;;;;;;29.33;27.23;;;;;;;25.19;56.15;101599.47;5011174;28;20136;-78
2023/06/05 09:38:41;;;;;;;34.65;32.25;;;;;;;25.15;54.83;101594.88;4991710;28;20054;-78
2023/06/05 09:41:10;;;;;;;34.38;31.95;;;;;;;24.96;62.43;101589.25;5000652;28;20054;-78
2023/06/05 09:43:37;;;;;;;33.55;31.05;;;;;;;25.65;56.21;101587.38;4991786;28;20482;-78
2023/06/05 09:46:09;;;;;;;30.27;28.13;;;;;;;25.75;62.32;101587.28;4995837;28;20050;-78
2023/06/05 09:48:58;;;;;;;23.38;21.58;;;;;;;25.63;46.34;101571.38;4991989;28;20137;-78
2023/06/05 09:51:26;;;;;;;34.22;32.13;;;;;;;25.52;53.65;101576.09;4995689;28;20058;-78
2023/06/05 09:54:01;;;;;;;32.78;30.38;;;;;;;25.99;44.85;101569.13;4991902;28;20058;-78
2023/06/05 09:56:29;;;;;;;34.00;31.83;;;;;;;25.66;68.75;101565.34;4991540;28;20049;-78
2023/06/05 09:59:05;;;;;;;34.75;32.35;;;;;;;26.15;44.67;101567.03;5011003;28;20050;-79
2023/06/05 10:01:37;;;;;;;37.97;35.47;;;;;;;25.58;55.13;101571.41;5004765;28;20505;-78
2023/06/05 10:04:09;;;;;;;34.03;31.83;;;;;;;26.23;59.22;101565.56;4991418;28;20054;-78
2023/06/05 10:06:39;;;;;;;;;;;;;;;26.01;39.93;101572.34;5009470;28;20053;-78
2023/06/05 10:09:09;;;;;;;37.95;35.55;;;;;;;25.65;38.12;101574.59;4992707;28;19921;-85
2023/06/05 10:11:39;;;;;;;32.75;30.33;;;;;;;24.98;87.31;101576.22;5004731;28;20061;-85
2023/06/05 10:14:06;;;;;;;29.98;27.90;;;;;;;25.91;38.23;101577.09;5002143;28;20437;-86
2023/06/05 10:16:34;;;;;;;27.75;25.85;;;;;;;26.33;43.20;101562.72;4996203;28;20057;-85
2023/06/05 10:19:09;;;;;;;28.25;26.15;;;;;;;25.70;35.83;101554.72;4996542;28;20042;-85
2023/06/05 10:21:49;;;;;;;26.48;24.30;;;;;;;25.86;38.77;101558.09;5003162;28;20058;-86
2023/06/05 10:24:20;;;;;;;33.22;31.13;;;;;;;26.14;39.33;101565.38;5009209;28;20060;-78
2023/06/05 10:27:34;;;;;;;32.38;29.98;;;;;;;26.36;38.34;101556.72;5004198;28;20077;-79
2023/06/05 10:30:20;;;;;;;;;;;;;;;26.30;40.05;101555.16;4991348;28;20419;-78
2023/06/05 10:33:03;;;;;;;37.05;34.58;;;;;;;26.72;41.08;101556.25;5007069;28;20337;-78
2023/06/05 10:35:43;;;;;;;37.05;34.45;;;;;;;26.38;38.69;101540.88;5000339;28;20050;-78
2023/06/05 10:38:18;;;;;;;31.88;29.67;;;;;;;26.28;36.80;101530.91;4999823;28;20073;-78
2023/06/05 10:40:56;;;;;;;31.85;29.63;;;;;;;26.56;36.63;101528.41;4991061;28;20081;-79
2023/06/05 10:43:29;;;;;;;34.00;31.50;;;;;;;26.67;34.93;101524.44;5001001;28;20054;-78
2023/06/05 10:46:30;;;;;;;29.85;27.75;;;;;;;26.41;38.93;101528.56;5005941;28;20060;-78
2023/06/05 10:49:15;;;;;;;31.70;29.13;;;;;;;26.73;39.72;101527.91;4991217;28;20062;-85
2023/06/05 10:51:44;;;;;;;20.48;18.90;;;;;;;27.04;35.93;101522.78;5000335;28;20046;-86
2023/06/05 10:54:16;;;;;;;20.45;18.85;;;;;;;26.97;36.62;101516.09;4993796;28;20086;-85
2023/06/05 10:56:59;;;;;;;21.80;20.08;;;;;;;27.32;37.92;101526.44;4995392;28;20085;-84
2023/06/05 10:59:27;;;;;;;22.10;20.05;;;;;;;27.02;36.95;101518.72;4991768;28;20046;-78
2023/06/05 11:02:39;;;;;;;21.33;19.60;;;;;;;27.20;37.03;101507.00;4999800;28;20078;-85
2023/06/05 11:05:23;;;;;;;20.50;19.00;;;;;;;26.83;36.28;101511.38;5005525;28;20062;-85
2023/06/05 11:08:19;;;;;;;20.50;19.00;;;;;;;26.83;36.09;101505.13;5004752;28;20433;-85
2023/06/05 11:11:06;;;;;;;21.75;20.00;;;;;;;26.53;41.71;101512.63;5006986;28;20486;-86
2023/06/05 11:14:00;;;;;;;21.25;19.45;;;;;;;26.99;35.56;101506.50;5000121;28;20085;-85
2023/06/05 11:16:37;;;;;;;19.92;18.38;;;;;;;27.42;35.88;101508.28;4994359;28;20046;-85
2023/06/05 11:19:38;;;;;;;19.25;18.00;;;;;;;26.73;37.65;101498.72;5003997;28;20058;-85